Upsala, Canada
Current Conditions -  °F | °C
As of 1:00 AM on Thursday 23 Oct 2014 (Local Time) from CYQT Reporting Station
Overcast Overcast  
Wind Chill: 41°   Ceiling: 13000
Heat Index: 45°   Visibility: 15mi
Dew Point: 41°   Wind: 6mph
Humidity: 87%   Direction: 70°ENE
Pressure: 30.07"   Gusts: NA
Location:  49.04°N, 90.47°W
Report Text: CYQT 230600Z 07005KT 15SM SCT055 OVC130 07/05 A3007 RMK SC4AC4 SLP188
Loading
Personal Weather Stations






























Interactive Weather Map
Tropical Storm Tracking
New forecast layout! Learn more

10-Day Weather Forecast

Advertisements
Track Severe Weather on mobile